Time;durP1;ratioP1;P1;durP2;ratioP2;P2;SDS_P1;SDS_P2;PMS_P1;PMS_P2;Temp;Humidity;BMP_temperature;BMP_pressure;BME280_temperature;BME280_humidity;BME280_pressure;Samples;Min_cycle;Max_cycle;Signal;HPM_P1;HPM_P2
2021/08/18 00:01:10;;;;;;;7.57;5.07;;;;;;;27.14;42.00;99081.47;5071959;28;20025;-75
2021/08/18 00:03:36;;;;;;;7.82;5.68;;;;;;;27.05;42.05;99074.31;5071402;28;20040;-75
2021/08/18 00:06:01;;;;;;;7.32;5.35;;;;;;;26.71;42.20;99025.81;5071498;28;20021;-76
2021/08/18 00:08:27;;;;;;;9.60;5.25;;;;;;;26.78;42.51;99042.50;5071495;28;20024;-76
2021/08/18 00:10:52;;;;;;;7.53;4.93;;;;;;;26.84;43.17;99050.25;5071288;28;20036;-75
2021/08/18 00:13:22;;;;;;;9.13;5.28;;;;;;;27.00;43.40;99061.66;5071252;28;20024;-75
2021/08/18 00:15:49;;;;;;;8.73;5.88;;;;;;;27.04;43.60;99068.09;5071391;28;20028;-74
2021/08/18 00:18:15;;;;;;;6.72;6.03;;;;;;;27.09;43.76;99059.88;5071425;28;20101;-74
2021/08/18 00:20:40;;;;;;;7.57;5.75;;;;;;;27.08;44.07;99058.28;5071465;28;20481;-75
2021/08/18 00:23:06;;;;;;;6.30;5.57;;;;;;;26.71;44.13;99006.84;5071339;28;20032;-75
2021/08/18 00:25:32;;;;;;;6.97;5.68;;;;;;;27.09;44.36;99064.50;5070379;28;20105;-75
2021/08/18 00:27:57;;;;;;;7.10;5.90;;;;;;;26.67;44.74;98992.28;5052986;28;20031;-75
2021/08/18 00:30:23;;;;;;;8.02;5.95;;;;;;;27.07;44.92;99056.66;5071137;28;20028;-75
2021/08/18 00:32:48;;;;;;;7.28;5.70;;;;;;;27.08;44.76;99058.28;5053249;28;20017;-76
2021/08/18 00:35:14;;;;;;;8.18;5.75;;;;;;;26.78;45.24;99021.66;5070961;28;20040;-74
2021/08/18 00:37:39;;;;;;;9.82;6.57;;;;;;;26.91;45.49;99039.84;5071319;28;20028;-75
2021/08/18 00:40:05;;;;;;;7.90;5.95;;;;;;;27.02;45.77;99055.94;5071220;28;20025;-76
2021/08/18 00:42:32;;;;;;;7.15;6.20;;;;;;;26.77;45.66;99020.03;5071061;28;20021;-76
2021/08/18 00:44:57;;;;;;;8.27;6.32;;;;;;;26.94;45.78;99038.44;5071079;28;20025;-75
2021/08/18 00:47:23;;;;;;;7.68;6.43;;;;;;;26.83;46.03;99029.69;5071023;28;20451;-74
2021/08/18 00:49:48;;;;;;;8.82;6.75;;;;;;;26.85;46.58;99061.91;5071103;28;20527;-75
2021/08/18 00:52:13;;;;;;;8.00;6.28;;;;;;;26.85;46.38;99061.91;5052962;28;20028;-75
2021/08/18 00:54:39;;;;;;;10.45;6.88;;;;;;;26.78;46.41;99053.34;5070968;28;20102;-75
2021/08/18 00:57:06;;;;;;;10.55;6.22;;;;;;;26.78;46.45;99054.16;5069762;28;20028;-75
2021/08/18 00:59:32;;;;;;;9.00;6.03;;;;;;;26.83;46.60;99056.78;5070948;28;20064;-76
2021/08/18 01:01:58;;;;;;;8.05;6.32;;;;;;;26.71;46.90;99056.41;5070833;28;20031;-75
2021/08/18 01:04:23;;;;;;;6.53;5.60;;;;;;;26.38;47.03;99016.88;5071010;28;20028;-77
2021/08/18 01:06:49;;;;;;;7.18;6.47;;;;;;;26.58;46.92;99046.31;5071200;28;20058;-76
2021/08/18 01:09:18;;;;;;;7.53;6.50;;;;;;;26.54;46.90;99035.28;5071048;28;20116;-75
2021/08/18 01:11:47;;;;;;;8.57;6.53;;;;;;;26.21;47.02;98996.53;5070768;28;20024;-75
2021/08/18 01:14:13;;;;;;;8.02;5.85;;;;;;;26.62;47.00;99035.72;5070923;28;20032;-75
2021/08/18 01:16:41;;;;;;;6.93;6.22;;;;;;;26.65;47.22;99032.41;5070817;28;20029;-75
2021/08/18 01:19:08;;;;;;;8.18;6.20;;;;;;;26.68;47.18;99026.41;5052701;28;20024;-76
2021/08/18 01:21:35;;;;;;;7.47;6.68;;;;;;;26.66;47.47;99023.19;5070689;28;20481;-76
2021/08/18 01:24:03;;;;;;;9.50;6.10;;;;;;;26.63;47.24;99018.34;5070741;28;20507;-75
2021/08/18 01:26:29;;;;;;;8.70;6.03;;;;;;;26.42;47.31;98977.28;5070436;28;20086;-75
2021/08/18 01:28:55;;;;;;;6.82;6.13;;;;;;;26.72;47.30;99016.59;5070728;28;20413;-75
2021/08/18 01:31:21;;;;;;;10.73;6.45;;;;;;;26.77;47.52;99019.22;5070777;28;20029;-76
2021/08/18 01:33:47;;;;;;;10.48;6.30;;;;;;;26.75;47.39;99013.28;5070615;28;20027;-75
2021/08/18 01:36:12;;;;;;;13.02;5.78;;;;;;;26.70;47.50;99019.59;5071256;28;20039;-76
2021/08/18 01:38:38;;;;;;;9.55;6.90;;;;;;;26.66;47.50;99018.56;5074292;28;20037;-75
2021/08/18 01:41:03;;;;;;;8.65;6.28;;;;;;;26.68;47.51;99013.66;5074202;28;20032;-76
2021/08/18 01:43:29;;;;;;;8.70;6.38;;;;;;;26.71;47.73;99012.28;5056288;28;20028;-73
2021/08/18 01:45:54;;;;;;;11.05;6.40;;;;;;;26.71;47.74;99006.84;5074194;28;20016;-76
2021/08/18 01:48:22;;;;;;;9.30;6.88;;;;;;;26.67;47.95;99011.25;5074092;28;20394;-75
2021/08/18 01:50:50;;;;;;;8.70;6.53;;;;;;;26.60;48.20;99007.03;5073957;28;20504;-75
2021/08/18 01:53:45;;;;;;;7.72;6.53;;;;;;;26.35;48.21;98976.84;5073781;28;20028;-74
2021/08/18 01:56:16;;;;;;;10.25;6.13;;;;;;;26.42;48.37;98988.09;5070546;28;20044;-74
2021/08/18 01:58:43;;;;;;;16.30;6.70;;;;;;;26.44;48.66;99005.66;5073747;28;20036;-73
2021/08/18 02:01:11;;;;;;;10.55;6.75;;;;;;;26.44;48.55;98999.44;5073879;28;20394;-74
2021/08/18 02:03:37;;;;;;;11.70;7.15;;;;;;;26.37;48.63;99002.53;5073836;28;20066;-76
2021/08/18 02:06:02;;;;;;;10.43;6.47;;;;;;;26.45;48.38;99003.75;5055624;28;20017;-76
2021/08/18 02:08:28;;;;;;;8.20;6.43;;;;;;;26.19;48.34;98955.41;5055606;28;20123;-75
2021/08/18 02:10:54;;;;;;;12.70;7.30;;;;;;;26.40;48.53;98998.44;5073734;28;20032;-75
2021/08/18 02:13:19;;;;;;;8.60;6.72;;;;;;;26.38;48.45;99001.44;5073866;28;20029;-75
2021/08/18 02:15:45;;;;;;;9.45;7.10;;;;;;;26.38;49.04;99004.13;5073477;28;20482;-76
2021/08/18 02:18:14;;;;;;;8.07;6.43;;;;;;;26.23;48.91;98982.69;5073692;28;20093;-76
2021/08/18 02:20:40;;;;;;;12.60;7.80;;;;;;;26.42;48.94;99015.19;5073679;28;20025;-75
2021/08/18 02:23:06;;;;;;;8.68;7.15;;;;;;;26.42;48.98;99026.81;5073451;28;20103;-76
2021/08/18 02:25:32;;;;;;;8.57;6.78;;;;;;;26.21;48.84;98984.88;5073178;28;20052;-76
2021/08/18 02:27:57;;;;;;;9.02;7.53;;;;;;;26.45;48.16;99018.09;5073238;28;20554;-76
2021/08/18 02:30:28;;;;;;;9.10;7.50;;;;;;;26.07;47.71;98959.66;5073167;28;20463;-75
2021/08/18 02:32:54;;;;;;;11.23;8.30;;;;;;;26.36;47.94;99016.34;5073128;28;20398;-75
2021/08/18 02:35:21;;;;;;;12.05;7.93;;;;;;;26.27;47.56;99005.38;5073022;28;20039;-75
2021/08/18 02:37:48;;;;;;;13.30;7.60;;;;;;;26.19;47.66;99008.72;5072945;28;20035;-76
2021/08/18 02:40:18;;;;;;;11.70;8.23;;;;;;;26.23;47.61;99018.69;5072986;28;20032;-75
2021/08/18 02:42:44;;;;;;;11.95;7.60;;;;;;;26.16;47.27;99030.97;5073234;28;20028;-74
2021/08/18 02:45:11;;;;;;;10.07;8.63;;;;;;;25.97;47.49;99018.22;5073171;28;20024;-75
2021/08/18 02:47:36;;;;;;;11.65;7.47;;;;;;;25.89;47.71;99032.38;5072607;28;20025;-75
2021/08/18 02:50:03;;;;;;;10.63;8.27;;;;;;;25.67;48.02;99007.00;5072746;28;20033;-75
2021/08/18 02:52:29;;;;;;;14.82;8.80;;;;;;;25.50;47.75;98996.63;5072840;28;20024;-75
2021/08/18 02:54:54;;;;;;;17.02;12.38;;;;;;;25.70;48.12;99033.47;5072935;28;20055;-76
2021/08/18 02:57:19;;;;;;;17.83;12.02;;;;;;;25.56;47.64;99017.91;5072609;28;20032;-75
2021/08/18 02:59:45;;;;;;;14.18;11.10;;;;;;;25.50;48.07;99010.16;5072601;28;20029;-75
2021/08/18 03:02:10;;;;;;;15.25;9.98;;;;;;;25.56;47.78;99028.72;5072763;28;20028;-75
2021/08/18 03:04:35;;;;;;;13.85;9.52;;;;;;;25.54;48.09;99032.81;5072784;28;20112;-75
2021/08/18 03:07:01;;;;;;;16.15;9.65;;;;;;;24.99;48.02;98968.28;5072612;28;20476;-76
2021/08/18 03:09:26;;;;;;;12.20;8.60;;;;;;;25.45;48.07;99056.16;5072553;28;20026;-75
2021/08/18 03:11:52;;;;;;;10.68;8.02;;;;;;;25.25;48.08;99027.44;5072471;28;20115;-76
2021/08/18 03:14:19;;;;;;;10.02;8.00;;;;;;;25.38;48.20;99055.69;5072542;28;20082;-73
2021/08/18 03:16:45;;;;;;;10.65;7.38;;;;;;;24.95;47.93;98988.00;5072278;28;20032;-76
2021/08/18 03:19:11;;;;;;;9.95;7.35;;;;;;;25.34;48.06;99047.34;5072284;28;20028;-75
2021/08/18 03:21:36;;;;;;;9.63;6.78;;;;;;;25.32;48.04;99049.53;5072447;28;20093;-76
2021/08/18 03:24:02;;;;;;;11.85;6.97;;;;;;;25.24;47.94;99056.34;5072468;28;20028;-78
2021/08/18 03:26:28;;;;;;;11.90;7.82;;;;;;;24.95;48.29;99010.41;5072072;28;20432;-79
2021/08/18 03:28:53;;;;;;;10.02;7.45;;;;;;;25.20;48.43;99059.91;5072068;28;20518;-79
2021/08/18 03:31:18;;;;;;;11.43;7.43;;;;;;;25.21;48.52;99062.31;5071889;28;20600;-79
2021/08/18 03:33:44;;;;;;;13.90;7.30;;;;;;;25.19;48.30;99071.81;5071770;28;20031;-79
2021/08/18 03:36:09;;;;;;;11.60;6.95;;;;;;;25.17;48.54;99074.78;5071807;28;20471;-79
2021/08/18 03:38:35;;;;;;;10.10;7.47;;;;;;;25.12;48.52;99080.25;5072032;28;20425;-79
2021/08/18 03:41:01;;;;;;;9.50;6.85;;;;;;;25.07;48.36;99093.00;5071964;28;20028;-79
2021/08/18 03:43:26;;;;;;;13.35;7.65;;;;;;;24.74;48.71;99046.78;5071866;28;20063;-79
2021/08/18 03:45:52;;;;;;;10.18;7.03;;;;;;;24.27;49.08;98988.84;5071652;28;20016;-79
2021/08/18 03:48:17;;;;;;;10.95;7.32;;;;;;;24.87;49.03;99085.84;5071784;28;20559;-78
2021/08/18 03:50:42;;;;;;;8.73;7.05;;;;;;;24.55;49.08;99026.97;5071785;28;20031;-79
2021/08/18 03:53:08;;;;;;;7.13;6.40;;;;;;;24.64;48.94;99049.56;5071637;28;20028;-79
2021/08/18 03:55:34;;;;;;;8.95;6.85;;;;;;;24.75;49.13;99066.50;5071532;28;20060;-79
2021/08/18 03:57:59;;;;;;;12.10;7.85;;;;;;;24.82;49.01;99078.59;5071680;28;20028;-79
2021/08/18 04:00:25;;;;;;;8.88;7.05;;;;;;;24.79;49.05;99084.56;5069589;28;20093;-79
2021/08/18 04:02:50;;;;;;;17.15;8.23;;;;;;;24.78;49.31;99090.22;5071666;28;20028;-79
2021/08/18 04:05:15;;;;;;;8.75;7.20;;;;;;;24.81;49.15;99090.47;5071609;28;20099;-79
2021/08/18 04:07:41;;;;;;;10.73;7.57;;;;;;;24.64;49.43;99052.28;5071673;28;20020;-79
2021/08/18 04:10:07;;;;;;;14.25;7.95;;;;;;;24.39;49.40;99018.97;5071647;28;20417;-79
2021/08/18 04:12:53;;;;;;;10.40;6.90;;;;;;;24.73;49.70;99074.06;5053489;28;20180;-79
2021/08/18 04:15:20;;;;;;;11.63;7.63;;;;;;;24.76;49.48;99077.00;5053381;28;20021;-79
2021/08/18 04:17:46;;;;;;;12.35;7.72;;;;;;;24.63;49.32;99061.47;5053531;28;20031;-79
2021/08/18 04:20:12;;;;;;;13.15;7.93;;;;;;;24.91;49.46;99090.38;5071469;28;20028;-79
2021/08/18 04:22:40;;;;;;;10.98;8.30;;;;;;;24.83;49.56;99055.09;5053099;28;20486;-79
2021/08/18 04:25:08;;;;;;;15.32;8.80;;;;;;;24.87;49.78;99073.13;5071198;28;20504;-79
2021/08/18 04:27:33;;;;;;;10.10;7.72;;;;;;;24.92;49.57;99059.59;5053381;28;20489;-79
2021/08/18 04:29:58;;;;;;;12.77;8.32;;;;;;;24.94;49.90;99053.91;5071276;28;20032;-79
2021/08/18 04:32:24;;;;;;;12.88;7.30;;;;;;;24.82;49.49;99018.38;5071346;28;20105;-79
2021/08/18 04:34:49;;;;;;;12.88;8.80;;;;;;;25.24;49.81;99087.97;5071129;28;20082;-79
2021/08/18 04:37:14;;;;;;;13.80;8.25;;;;;;;25.23;49.55;99084.47;5071127;28;20012;-79
2021/08/18 04:39:40;;;;;;;12.77;7.15;;;;;;;25.06;49.54;99046.25;5071338;28;20438;-79
2021/08/18 04:42:05;;;;;;;12.25;8.25;;;;;;;25.32;49.52;99093.59;5071178;28;20493;-79
2021/08/18 04:44:31;;;;;;;12.52;8.15;;;;;;;24.97;49.47;99046.06;5071134;28;20023;-79
2021/08/18 04:46:56;;;;;;;12.38;8.07;;;;;;;25.30;49.34;99094.97;5052966;28;20104;-79
2021/08/18 04:49:21;;;;;;;13.27;8.30;;;;;;;25.19;49.59;99085.31;5052983;28;20485;-80
2021/08/18 04:51:47;;;;;;;11.55;8.68;;;;;;;24.97;49.85;99046.06;5071008;28;20107;-79
2021/08/18 04:54:12;;;;;;;11.23;8.38;;;;;;;25.17;49.79;99066.69;5070943;28;20485;-80
2021/08/18 04:56:37;;;;;;;16.20;8.50;;;;;;;24.99;50.19;99043.91;5070773;28;20099;-79
2021/08/18 04:59:03;;;;;;;11.88;8.43;;;;;;;24.98;50.62;99057.69;5071118;28;20028;-79
2021/08/18 05:01:28;;;;;;;12.15;8.45;;;;;;;25.17;50.92;99098.31;5070959;28;20063;-79
2021/08/18 05:03:54;;;;;;;11.52;8.40;;;;;;;24.95;50.91;99061.72;5070657;28;20021;-79
2021/08/18 05:06:19;;;;;;;14.35;9.40;;;;;;;24.77;50.84;99030.03;5070963;28;20013;-79
2021/08/18 05:08:44;;;;;;;11.80;8.60;;;;;;;24.95;51.02;99053.63;5070861;28;20096;-79
2021/08/18 05:11:10;;;;;;;12.43;8.30;;;;;;;25.07;50.96;99063.28;5053185;28;20041;-79
2021/08/18 05:13:35;;;;;;;16.08;9.05;;;;;;;25.32;50.62;99095.47;5074600;28;20017;-79
2021/08/18 05:16:01;;;;;;;13.90;7.97;;;;;;;25.19;50.97;99067.19;5074711;28;20474;-80
2021/08/18 05:18:26;;;;;;;12.10;8.32;;;;;;;25.43;50.66;99097.00;5074542;28;20016;-80
2021/08/18 05:20:51;;;;;;;18.63;8.88;;;;;;;25.21;50.73;99054.22;5056579;28;20023;-80
2021/08/18 05:23:17;;;;;;;10.57;8.38;;;;;;;25.47;50.76;99091.81;5056549;28;20103;-73
2021/08/18 05:25:42;;;;;;;12.07;8.30;;;;;;;25.28;50.87;99062.81;5074405;28;20045;-76
2021/08/18 05:28:10;;;;;;;10.75;8.32;;;;;;;25.26;50.59;99056.88;5074282;28;20020;-76
2021/08/18 05:30:35;;;;;;;16.58;9.05;;;;;;;25.73;50.84;99112.09;5074672;28;20020;-76
2021/08/18 05:33:01;;;;;;;16.75;9.93;;;;;;;25.81;50.55;99097.13;5074184;28;20081;-75
2021/08/18 05:35:26;;;;;;;14.50;9.95;;;;;;;25.91;50.44;99103.22;5074006;28;20016;-73
2021/08/18 05:37:52;;;;;;;14.88;9.10;;;;;;;25.99;50.54;99101.78;5074080;28;20021;-76
2021/08/18 05:40:17;;;;;;;13.38;8.38;;;;;;;25.84;50.62;99085.75;5074072;28;20107;-74
2021/08/18 05:42:42;;;;;;;12.80;8.43;;;;;;;25.49;50.79;99051.78;5076803;28;20022;-75
2021/08/18 05:45:08;;;;;;;13.27;8.57;;;;;;;25.82;50.84;99101.44;5090797;28;20043;-76
2021/08/18 05:47:34;;;;;;;15.90;8.85;;;;;;;25.63;50.63;99060.81;5093920;28;20067;-75
2021/08/18 05:50:00;;;;;;;14.20;9.23;;;;;;;26.15;50.57;99126.78;5093869;28;20023;-74
2021/08/18 05:52:25;;;;;;;10.65;8.38;;;;;;;26.25;50.45;99130.16;5093906;28;20095;-74
2021/08/18 05:54:50;;;;;;;10.40;7.60;;;;;;;26.34;50.55;99133.03;5093822;28;20034;-77
2021/08/18 05:57:16;;;;;;;15.25;8.73;;;;;;;26.43;50.37;99134.00;5093944;28;20026;-76
2021/08/18 05:59:41;;;;;;;15.55;9.77;;;;;;;26.43;50.80;99141.31;5093897;28;20110;-76
2021/08/18 06:02:06;;;;;;;11.38;8.52;;;;;;;26.42;50.76;99142.41;5094882;28;20068;-73
2021/08/18 06:04:32;;;;;;;11.35;10.15;;;;;;;26.15;50.87;99087.00;5092284;28;20024;-75
2021/08/18 06:06:57;;;;;;;12.68;8.30;;;;;;;26.44;50.82;99121.28;5092723;28;20031;-76
2021/08/18 06:09:23;;;;;;;11.57;9.10;;;;;;;26.38;50.73;99103.50;5093707;28;20016;-75
2021/08/18 06:11:48;;;;;;;14.00;8.77;;;;;;;26.73;50.58;99131.94;5092456;28;20543;-75
2021/08/18 06:14:14;;;;;;;14.05;9.00;;;;;;;26.62;50.57;99103.41;5077747;28;20028;-75
2021/08/18 06:16:39;;;;;;;10.93;8.73;;;;;;;26.94;50.15;99127.84;5073837;28;20119;-76
2021/08/18 06:19:04;;;;;;;9.20;7.93;;;;;;;27.04;49.65;99107.94;5093507;28;20020;-75
2021/08/18 06:21:30;;;;;;;14.50;10.75;;;;;;;27.34;49.13;99131.00;5093424;28;20413;-75
2021/08/18 06:24:02;;;;;;;11.00;8.32;;;;;;;27.46;49.26;99139.47;5092273;28;20042;-75
2021/08/18 06:26:27;;;;;;;10.52;8.00;;;;;;;27.23;48.90;99078.88;5093117;28;20520;-76
2021/08/18 06:28:53;;;;;;;15.13;7.88;;;;;;;27.35;48.64;99079.19;5093129;28;20101;-75
2021/08/18 06:31:18;;;;;;;10.98;8.23;;;;;;;27.62;48.70;99124.56;5074848;28;20024;-75
2021/08/18 06:33:44;;;;;;;11.02;9.38;;;;;;;27.42;48.85;99103.19;5092724;28;20113;-75
2021/08/18 06:36:09;;;;;;;11.07;8.45;;;;;;;27.43;48.74;99092.06;5085979;28;20423;-74
2021/08/18 06:38:35;;;;;;;9.40;7.65;;;;;;;27.66;48.66;99117.44;5093222;28;20024;-74
2021/08/18 06:41:00;;;;;;;13.32;8.45;;;;;;;27.52;48.59;99079.44;5092971;28;20032;-75
2021/08/18 06:43:25;;;;;;;11.05;7.93;;;;;;;27.56;48.19;99078.84;5092445;28;20020;-76
2021/08/18 06:45:51;;;;;;;10.18;8.35;;;;;;;27.90;47.66;99116.44;5092506;28;20031;-76
2021/08/18 06:48:16;;;;;;;10.85;7.45;;;;;;;28.03;47.29;99140.03;5074803;28;20039;-74
2021/08/18 06:50:42;;;;;;;9.40;7.45;;;;;;;27.70;46.52;99087.81;5092970;28;20100;-77
2021/08/18 06:53:07;;;;;;;8.00;6.82;;;;;;;27.92;46.49;99128.59;5092740;28;20451;-76
2021/08/18 06:55:34;;;;;;;12.85;8.07;;;;;;;27.96;46.54;99136.94;5092794;28;20019;-73
2021/08/18 06:57:59;;;;;;;8.90;6.95;;;;;;;27.98;46.53;99143.66;5092825;28;20035;-74
2021/08/18 07:00:25;;;;;;;9.25;7.78;;;;;;;27.95;46.31;99136.13;5092651;28;20020;-74
2021/08/18 07:02:51;;;;;;;11.80;7.45;;;;;;;27.92;46.13;99125.06;5074550;28;20118;-75
2021/08/18 07:05:18;;;;;;;10.05;8.15;;;;;;;27.67;45.78;99089.22;5106793;28;20031;-75
2021/08/18 07:07:44;;;;;;;10.27;7.78;;;;;;;27.91;46.16;99139.75;5092778;28;20020;-76
2021/08/18 07:10:12;;;;;;;9.32;6.88;;;;;;;27.95;45.80;99140.75;5091648;28;20106;-72
2021/08/18 07:12:38;;;;;;;13.02;7.32;;;;;;;27.78;45.56;99101.47;5091282;28;20035;-76
2021/08/18 07:15:05;;;;;;;7.90;6.72;;;;;;;27.76;44.79;99073.84;5073936;28;20028;-74
2021/08/18 07:17:30;;;;;;;9.63;7.70;;;;;;;27.74;44.53;99059.78;5086916;28;20032;-75
2021/08/18 07:19:55;;;;;;;8.98;6.32;;;;;;;28.16;44.56;99125.66;5072869;28;20028;-76
2021/08/18 07:22:21;;;;;;;8.95;6.40;;;;;;;28.24;43.23;99111.44;5089914;28;20027;-73
2021/08/18 07:24:46;;;;;;;9.25;6.35;;;;;;;28.46;42.92;99126.97;5089382;28;20162;-75
2021/08/18 07:27:12;;;;;;;8.45;6.32;;;;;;;28.60;42.58;99126.91;5072574;28;20055;-74
2021/08/18 07:29:37;;;;;;;9.38;6.15;;;;;;;28.45;42.26;99093.56;5072534;28;20105;-75
2021/08/18 07:32:03;;;;;;;11.63;7.05;;;;;;;28.45;40.53;99090.06;5090488;28;21589;-76
2021/08/18 07:34:28;;;;;;;11.00;6.78;;;;;;;28.76;40.03;99128.16;5090091;28;20023;-73
2021/08/18 07:36:54;;;;;;;10.48;6.75;;;;;;;28.66;39.88;99112.91;5090741;28;20024;-74
2021/08/18 07:39:19;;;;;;;9.43;6.50;;;;;;;28.61;39.47;99104.09;5091471;28;20028;-73
2021/08/18 07:41:44;;;;;;;10.25;6.55;;;;;;;28.85;39.24;99126.34;5091504;28;20028;-73
2021/08/18 07:44:10;;;;;;;7.78;6.15;;;;;;;28.90;39.29;99117.28;5090573;28;20107;-75
2021/08/18 07:46:35;;;;;;;9.40;5.93;;;;;;;28.79;38.68;99097.66;5090851;28;20411;-75
2021/08/18 07:49:01;;;;;;;8.27;6.47;;;;;;;29.03;38.94;99121.88;5098223;28;20020;-75
2021/08/18 07:51:26;;;;;;;8.38;6.60;;;;;;;29.02;39.42;99114.81;5107414;28;20049;-76
2021/08/18 07:53:51;;;;;;;11.52;7.20;;;;;;;29.08;39.75;99108.16;5109382;28;20511;-75
2021/08/18 07:56:17;;;;;;;12.32;6.53;;;;;;;29.18;39.34;99109.81;5089651;28;20024;-75
2021/08/18 07:58:42;;;;;;;13.30;9.10;;;;;;;29.06;39.16;99094.88;5090628;28;20085;-75
2021/08/18 08:01:08;;;;;;;11.10;6.63;;;;;;;28.98;39.32;99057.53;5091247;28;20016;-75
2021/08/18 08:03:33;;;;;;;12.68;6.78;;;;;;;29.14;39.36;99070.75;5090358;28;20416;-74
2021/08/18 08:05:59;;;;;;;9.73;6.97;;;;;;;29.52;38.81;99107.28;5090819;28;20489;-74
2021/08/18 08:08:24;;;;;;;10.75;7.78;;;;;;;29.28;38.71;99071.47;5089858;28;20404;-74
2021/08/18 08:10:49;;;;;;;10.00;6.60;;;;;;;29.67;38.94;99114.22;5090665;28;20024;-73
2021/08/18 08:13:15;;;;;;;10.48;7.00;;;;;;;29.42;38.32;99048.50;5091032;28;20067;-75
2021/08/18 08:15:41;;;;;;;9.02;7.07;;;;;;;29.82;38.18;99092.06;5090141;28;20065;-73
2021/08/18 08:18:06;;;;;;;10.02;7.40;;;;;;;29.93;38.09;99090.66;5090883;28;20028;-74
2021/08/18 08:20:32;;;;;;;9.75;6.60;;;;;;;29.85;37.34;99053.31;5089445;28;20034;-74
2021/08/18 08:22:59;;;;;;;10.93;6.55;;;;;;;30.23;37.13;99102.59;5071311;28;20161;-74
2021/08/18 08:25:25;;;;;;;9.65;6.18;;;;;;;30.26;37.09;99114.75;5090741;28;20036;-78
2021/08/18 08:27:50;;;;;;;9.50;6.85;;;;;;;29.93;36.40;99049.81;5091011;28;20566;-78
2021/08/18 08:30:16;;;;;;;10.07;6.60;;;;;;;30.22;36.59;99081.91;5090703;28;20028;-78
2021/08/18 08:32:41;;;;;;;11.10;6.95;;;;;;;30.23;36.31;99067.19;5091775;28;20400;-79
2021/08/18 08:35:08;;;;;;;8.93;6.43;;;;;;;30.50;35.88;99100.72;5089036;28;20036;-77
2021/08/18 08:37:33;;;;;;;7.72;6.63;;;;;;;30.29;35.99;99063.19;5094156;28;20024;-79
2021/08/18 08:39:59;;;;;;;9.63;6.75;;;;;;;30.10;36.06;99007.44;5090091;28;20028;-78
2021/08/18 08:42:27;;;;;;;9.80;8.18;;;;;;;30.73;35.82;99090.47;5091655;28;20030;-77
2021/08/18 08:44:53;;;;;;;9.52;6.28;;;;;;;30.77;35.66;99091.44;5077516;28;20028;-78
2021/08/18 08:47:20;;;;;;;10.02;6.90;;;;;;;30.77;35.60;99097.69;5092161;28;20411;-78
2021/08/18 08:49:48;;;;;;;10.80;6.60;;;;;;;30.86;35.82;99084.84;5093672;28;20028;-77
2021/08/18 08:52:14;;;;;;;7.72;6.68;;;;;;;30.99;35.93;99089.31;5077612;28;20015;-78
2021/08/18 08:54:43;;;;;;;8.02;6.60;;;;;;;31.13;35.45;99102.75;5094251;28;20054;-78
2021/08/18 08:57:09;;;;;;;8.10;6.80;;;;;;;30.82;35.10;99037.56;5093755;28;20016;-78
2021/08/18 08:59:34;;;;;;;11.00;8.02;;;;;;;31.03;35.21;99042.31;5095036;28;20104;-78
2021/08/18 09:02:07;;;;;;;8.65;7.35;;;;;;;31.45;35.37;99087.78;5076637;28;20516;-81
2021/08/18 09:04:35;;;;;;;8.27;7.18;;;;;;;31.32;34.79;99044.34;5092974;28;20586;-81
2021/08/18 09:07:11;;;;;;;11.52;7.88;;;;;;;31.25;34.49;99026.56;5093937;28;20026;-77
2021/08/18 09:09:39;;;;;;;8.30;7.32;;;;;;;31.15;34.21;99016.00;5093994;28;20111;-78
2021/08/18 09:12:07;;;;;;;8.35;6.82;;;;;;;31.79;34.40;99075.13;5093741;28;20094;-78
2021/08/18 09:14:33;;;;;;;9.95;7.65;;;;;;;31.95;34.45;99064.44;5094450;28;20040;-81
2021/08/18 09:16:59;;;;;;;7.38;6.47;;;;;;;31.78;33.58;99000.63;5094421;28;20047;-80
2021/08/18 09:19:31;;;;;;;8.43;6.55;;;;;;;31.92;33.89;99005.84;5094580;28;20020;-78
2021/08/18 09:22:06;;;;;;;7.20;6.53;;;;;;;32.26;33.58;99023.16;5093862;28;20516;-78
2021/08/18 09:24:33;;;;;;;8.75;6.97;;;;;;;32.51;33.36;99042.03;5094721;28;20062;-78
2021/08/18 09:27:08;;;;;;;10.55;7.85;;;;;;;32.83;33.09;99064.31;5093660;28;20044;-79
2021/08/18 09:29:45;;;;;;;14.10;7.75;;;;;;;32.59;32.81;99004.03;5090960;28;20437;-78
2021/08/18 09:32:28;;;;;;;11.18;7.53;;;;;;;32.69;32.36;98998.13;5069300;28;20035;-79
2021/08/18 09:35:02;;;;;;;10.43;7.15;;;;;;;33.18;32.39;99051.06;5096122;28;20027;-78
2021/08/18 09:37:28;;;;;;;10.85;8.05;;;;;;;33.25;32.35;99058.72;5092135;28;20038;-78
2021/08/18 09:39:55;;;;;;;11.85;7.35;;;;;;;33.23;32.32;99028.94;5099477;28;20051;-78
2021/08/18 09:42:29;;;;;;;8.43;7.25;;;;;;;33.50;32.12;99052.19;5093841;28;20020;-79
2021/08/18 09:45:17;;;;;;;10.35;6.90;;;;;;;33.30;32.05;99015.53;5079275;28;20040;-78
2021/08/18 09:47:55;;;;;;;8.45;7.40;;;;;;;33.51;31.58;99047.50;5093267;28;20024;-78
2021/08/18 09:50:23;;;;;;;7.68;6.47;;;;;;;33.50;31.23;99021.28;5093543;28;20032;-77
2021/08/18 09:52:50;;;;;;;11.95;8.27;;;;;;;33.64;31.25;99013.50;5102859;28;20111;-79
2021/08/18 09:55:21;;;;;;;9.27;7.38;;;;;;;33.97;31.23;99025.13;5131006;27;20141;-78
2021/08/18 09:57:46;;;;;;;10.75;7.63;;;;;;;34.26;30.54;99034.19;5134374;27;20023;-78
2021/08/18 10:00:12;;;;;;;11.32;7.97;;;;;;;34.31;30.24;99015.56;5123491;27;20034;-77
2021/08/18 10:02:38;;;;;;;9.20;7.40;;;;;;;34.37;30.40;99005.19;5113880;28;20031;-78
2021/08/18 10:05:04;;;;;;;9.35;8.00;;;;;;;34.76;29.79;99041.91;5113982;28;20465;-77
2021/08/18 10:07:30;;;;;;;11.05;8.30;;;;;;;34.52;29.74;98996.19;5094730;28;20024;-78
2021/08/18 10:09:55;;;;;;;9.60;7.47;;;;;;;34.95;29.98;99036.59;5093579;28;20400;-78
2021/08/18 10:12:21;;;;;;;9.35;7.53;;;;;;;35.01;29.35;98999.50;5097763;28;20020;-78
2021/08/18 10:14:48;;;;;;;8.93;7.93;;;;;;;35.33;29.08;99029.72;5108897;27;20413;-76
2021/08/18 10:17:14;;;;;;;14.40;9.02;;;;;;;35.37;28.92;99024.31;5117402;27;20072;-79
2021/08/18 10:19:40;;;;;;;10.77;7.65;;;;;;;35.15;29.13;99003.75;5116739;27;20043;-77
2021/08/18 10:22:06;;;;;;;8.50;7.65;;;;;;;35.29;29.04;98995.88;5091057;28;20035;-77
2021/08/18 10:24:35;;;;;;;8.38;7.00;;;;;;;35.62;28.96;99014.72;5116903;27;20019;-78
2021/08/18 10:27:04;;;;;;;8.52;7.35;;;;;;;35.75;28.68;98999.75;5120141;27;20112;-79
2021/08/18 10:29:39;;;;;;;9.82;7.45;;;;;;;36.01;27.87;98993.66;5093685;28;20602;-78
2021/08/18 10:32:06;;;;;;;9.57;7.05;;;;;;;36.11;27.96;99009.56;5113500;27;20106;-77
2021/08/18 10:34:45;;;;;;;8.43;7.43;;;;;;;35.79;27.84;98958.63;5090167;28;20563;-78
2021/08/18 10:37:23;;;;;;;10.00;8.40;;;;;;;36.18;27.10;99000.69;5111545;28;20067;-78
2021/08/18 10:39:51;;;;;;;12.20;8.13;;;;;;;36.11;27.28;98995.84;5117286;27;20058;-78
2021/08/18 10:42:43;;;;;;;8.50;6.88;;;;;;;36.16;27.14;98970.00;5094868;28;20119;-78
2021/08/18 10:45:17;;;;;;;8.85;7.55;;;;;;;36.46;26.32;98995.00;5101183;28;20023;-77
2021/08/18 10:47:42;;;;;;;9.23;7.97;;;;;;;36.52;26.74;98975.09;5094234;28;20511;-77
2021/08/18 10:50:16;;;;;;;8.38;7.68;;;;;;;36.56;26.47;98978.72;5112314;28;20027;-78
2021/08/18 10:52:42;;;;;;;8.45;7.55;;;;;;;36.67;26.72;98981.66;5112342;28;20034;-76
2021/08/18 10:55:11;;;;;;;11.40;6.90;;;;;;;36.47;26.44;98936.91;5112192;28;20416;-78
2021/08/18 10:57:44;;;;;;;8.10;7.30;;;;;;;36.77;26.06;98975.56;5093159;28;20027;-78
2021/08/18 11:00:16;;;;;;;8.32;6.95;;;;;;;36.62;25.76;98973.69;5113074;28;20030;-77
2021/08/18 11:02:49;;;;;;;7.72;6.80;;;;;;;36.70;25.86;98978.16;5092866;28;20047;-78
2021/08/18 11:05:16;;;;;;;8.38;7.47;;;;;;;36.43;25.48;98885.75;5111973;28;20035;-76
2021/08/18 11:08:01;;;;;;;8.68;7.78;;;;;;;37.00;25.34;98961.81;5107668;28;20032;-78
2021/08/18 11:10:27;;;;;;;9.50;8.15;;;;;;;37.04;25.42;98964.63;5073709;28;20035;-77
2021/08/18 11:12:54;;;;;;;10.38;6.85;;;;;;;37.30;24.69;98958.41;5101312;28;20035;-77
2021/08/18 11:15:19;;;;;;;9.88;8.40;;;;;;;37.39;24.89;98958.94;5112600;28;20031;-76
2021/08/18 11:17:49;;;;;;;9.38;8.13;;;;;;;37.52;24.41;98952.03;5112363;28;20053;-78
2021/08/18 11:20:19;;;;;;;10.10;7.37;;;;;;;37.44;24.98;98922.81;5112418;28;20035;-79
2021/08/18 11:22:51;;;;;;;8.15;6.50;;;;;;;37.52;24.34;98921.75;5108622;28;20269;-77
2021/08/18 11:25:18;;;;;;;8.15;7.13;;;;;;;37.71;23.99;98943.69;5092412;28;20075;-77
2021/08/18 11:27:51;;;;;;;9.50;7.95;;;;;;;37.88;24.58;98947.03;5108879;28;20026;-78